createdAt,value
2022-08-09T00:00:04.484Z,102848.94
2022-08-09T00:02:34.988Z,102843.59
2022-08-09T00:06:18.465Z,102847.13
2022-08-09T00:07:54.356Z,102845.31
2022-08-09T00:10:24.664Z,102841.72
2022-08-09T00:12:54.427Z,102840.81
2022-08-09T00:15:26.364Z,102844.31
2022-08-09T00:18:07.531Z,102843.41
2022-08-09T00:20:42.309Z,102842.50
2022-08-09T00:23:56.056Z,102838.06
2022-08-09T00:26:07.449Z,102839.75
2022-08-09T00:28:37.110Z,102837.97
2022-08-09T00:31:30.446Z,102840.59
2022-08-09T00:33:55.848Z,102839.69
2022-08-09T00:36:29.471Z,102840.53
2022-08-09T00:38:58.970Z,102844.03
2022-08-09T00:44:10.202Z,102832.53
2022-08-09T00:44:26.785Z,102837.75
2022-08-09T00:47:04.787Z,102835.13
2022-08-09T00:49:34.775Z,102835.91
2022-08-09T00:52:17.774Z,102833.25
2022-08-09T00:54:48.420Z,102836.75
2022-08-09T00:57:33.854Z,102835.84
2022-08-09T01:00:21.438Z,102835.78
2022-08-09T01:02:57.092Z,102836.59
2022-08-09T01:05:50.836Z,102833.06
2022-08-09T01:08:30.296Z,102838.25
2022-08-09T01:11:19.383Z,102840.91
2022-08-09T01:13:59.355Z,102845.28
2022-08-09T01:16:37.080Z,102841.75
2022-08-09T01:19:39.820Z,102845.22
2022-08-09T01:22:29.143Z,102856.63
2022-08-09T01:25:14.431Z,102846.03
2022-08-09T01:27:52.861Z,102857.50
2022-08-09T01:30:28.576Z,102861.88
2022-08-09T01:33:07.426Z,102856.56
2022-08-09T01:35:43.698Z,102863.63
2022-08-09T01:38:18.711Z,102864.47
2022-08-09T01:40:52.848Z,102863.53
2022-08-09T01:43:41.949Z,102867.03
2022-08-09T01:46:23.962Z,102864.34
2022-08-09T01:49:00.029Z,102867.81
2022-08-09T01:51:32.335Z,102873.94
2022-08-09T01:54:04.606Z,102872.16
2022-08-09T01:56:34.938Z,102875.66
2022-08-09T01:59:16.379Z,102875.59
2022-08-09T02:01:59.465Z,102875.53
2022-08-09T02:04:31.159Z,102879.00
2022-08-09T02:07:17.945Z,102886.00
2022-08-09T02:10:10.909Z,102868.34
2022-08-09T02:12:40.058Z,102880.63
2022-08-09T02:15:16.883Z,102875.28
2022-08-09T02:18:09.556Z,102871.75
2022-08-09T02:20:40.876Z,102871.66
2022-08-09T02:23:16.908Z,102876.91
2022-08-09T02:25:52.876Z,102866.31
2022-08-09T02:28:32.639Z,102877.66
2022-08-09T02:31:06.648Z,102867.91
2022-08-09T02:34:06.446Z,102868.78
2022-08-09T02:36:33.684Z,102859.03
2022-08-09T02:39:14.305Z,102866.06
2022-08-09T02:41:54.147Z,102855.50
2022-08-09T02:44:30.531Z,102866.00
2022-08-09T02:47:05.047Z,102863.34
2022-08-09T02:49:38.874Z,102858.94
2022-08-09T02:52:14.418Z,102865.03
2022-08-09T02:54:54.637Z,102859.69
2022-08-09T02:57:27.243Z,102853.44
2022-08-09T03:00:21.195Z,102857.78
2022-08-09T03:02:58.382Z,102856.84
2022-08-09T03:05:29.922Z,102852.44
2022-08-09T03:08:04.840Z,102847.09
2022-08-09T03:10:36.441Z,102848.84
2022-08-09T03:13:08.589Z,102847.09
2022-08-09T03:16:06.070Z,102857.56
2022-08-09T03:18:30.793Z,102856.63
2022-08-09T03:21:01.583Z,102854.84
2022-08-09T03:23:30.200Z,102856.63
2022-08-09T03:26:04.803Z,102860.09
2022-08-09T03:28:35.887Z,102858.34
2022-08-09T03:31:10.445Z,102858.34
2022-08-09T03:33:54.302Z,102858.31
2022-08-09T03:36:27.452Z,102859.16
2022-08-09T03:38:57.913Z,102858.25
2022-08-09T03:41:29.808Z,102857.38
2022-08-09T03:44:13.015Z,102860.84
2022-08-09T03:46:43.875Z,102851.13
2022-08-09T03:49:17.301Z,102861.63
2022-08-09T03:51:58.507Z,102859.00
2022-08-09T03:54:32.485Z,102865.97
2022-08-09T03:57:20.363Z,102865.94
2022-08-09T03:59:53.669Z,102866.81
2022-08-09T04:02:27.974Z,102866.81
2022-08-09T04:05:06.075Z,102867.66
2022-08-09T04:07:52.440Z,102863.25
2022-08-09T04:10:29.555Z,102857.97
2022-08-09T04:13:04.337Z,102861.44
2022-08-09T04:15:42.691Z,102865.88
2022-08-09T04:18:22.093Z,102865.00
2022-08-09T04:20:51.927Z,102873.84
2022-08-09T04:23:24.475Z,102869.44
2022-08-09T04:25:54.978Z,102875.66
2022-08-09T04:28:32.943Z,102871.31
2022-08-09T04:31:09.469Z,102868.72
2022-08-09T04:33:53.049Z,102870.47
2022-08-09T04:36:32.491Z,102877.53
2022-08-09T04:39:03.690Z,102875.81
2022-08-09T04:41:33.926Z,102875.88
2022-08-09T04:44:14.648Z,102875.09
2022-08-09T04:46:59.323Z,102877.78
2022-08-09T04:49:53.264Z,102888.44
2022-08-09T04:52:26.486Z,102889.50
2022-08-09T04:54:55.746Z,102894.91
2022-08-09T04:57:25.249Z,102884.53
2022-08-09T04:59:55.790Z,102882.06
2022-08-09T05:02:27.432Z,102890.13
2022-08-09T05:04:56.529Z,102887.66
2022-08-09T05:07:29.299Z,102889.59
2022-08-09T05:10:01.814Z,102885.31
2022-08-09T05:12:32.874Z,102889.00
2022-08-09T05:15:11.405Z,102890.03
2022-08-09T05:18:50.761Z,102896.38
2022-08-09T05:20:40.070Z,102898.31
2022-08-09T05:23:55.428Z,102892.31
2022-08-09T05:25:59.377Z,102906.59
2022-08-09T05:28:27.529Z,102899.78
2022-08-09T05:30:55.734Z,102905.25
2022-08-09T05:33:26.378Z,102910.72
2022-08-09T05:36:01.958Z,102912.66
2022-08-09T05:38:31.675Z,102915.41
2022-08-09T05:40:59.859Z,102903.22
2022-08-09T05:43:29.095Z,102901.63
2022-08-09T05:46:00.542Z,102895.59
2022-08-09T05:48:33.279Z,102893.97
2022-08-09T05:51:42.387Z,102889.66
2022-08-09T05:53:57.307Z,102899.50
2022-08-09T05:56:27.099Z,102906.69
2022-08-09T05:58:58.541Z,102907.66
2022-08-09T06:01:34.022Z,102906.88
2022-08-09T06:04:12.305Z,102910.50
2022-08-09T06:06:46.725Z,102907.06
2022-08-09T06:09:40.930Z,102911.53
2022-08-09T06:12:09.141Z,102914.28
2022-08-09T06:14:37.422Z,102922.28
2022-08-09T06:17:09.303Z,102925.00
2022-08-09T06:19:41.530Z,102926.78
2022-08-09T06:22:15.300Z,102932.13
2022-08-09T06:24:45.201Z,102929.56
2022-08-09T06:27:15.692Z,102928.69
2022-08-09T06:29:47.918Z,102938.44
2022-08-09T06:33:00.077Z,102935.75
2022-08-09T06:35:15.814Z,102942.00
2022-08-09T06:37:52.994Z,102933.13
2022-08-09T06:40:33.914Z,102940.19
2022-08-09T06:43:02.282Z,102953.50
2022-08-09T06:46:07.843Z,102949.97
2022-08-09T06:48:26.214Z,102953.50
2022-08-09T06:51:00.145Z,102957.91
2022-08-09T06:53:33.327Z,102958.78
2022-08-09T06:56:09.718Z,102972.03
2022-08-09T07:00:46.372Z,102968.47
2022-08-09T07:01:53.580Z,102972.84
2022-08-09T07:04:19.977Z,102969.28
2022-08-09T07:06:53.445Z,102969.25
2022-08-09T07:09:54.140Z,102980.75
2022-08-09T07:12:20.149Z,102974.50
2022-08-09T07:14:51.081Z,102972.69
2022-08-09T07:17:20.314Z,102977.94
2022-08-09T07:19:50.903Z,102976.09
2022-08-09T07:22:27.399Z,102979.53
2022-08-09T07:25:05.141Z,102983.06
2022-08-09T07:27:43.142Z,102982.13
2022-08-09T07:30:25.129Z,102988.28
2022-08-09T07:32:54.984Z,102970.34
2022-08-09T07:35:23.483Z,102983.53
2022-08-09T07:37:54.142Z,102977.16
2022-08-09T07:40:33.895Z,102987.63
2022-08-09T07:43:17.238Z,102984.78
2022-08-09T07:45:45.455Z,102987.38
2022-08-09T07:48:25.742Z,102986.59
2022-08-09T07:51:10.288Z,102976.88
2022-08-09T07:54:07.801Z,102969.66
2022-08-09T07:56:44.969Z,102969.38
2022-08-09T07:59:34.870Z,102970.09
2022-08-09T08:02:09.466Z,102969.03
2022-08-09T08:04:38.865Z,102968.84
2022-08-09T08:07:27.095Z,102973.13
2022-08-09T08:10:05.681Z,102964.97
2022-08-09T08:12:43.803Z,102971.00
2022-08-09T08:15:23.935Z,102969.84
2022-08-09T08:17:57.914Z,102965.94
2022-08-09T08:20:32.675Z,102972.81
2022-08-09T08:23:16.258Z,102973.50
2022-08-09T08:25:48.345Z,102976.88
2022-08-09T08:28:32.513Z,102971.31
2022-08-09T08:31:08.926Z,102989.97
2022-08-09T08:33:54.086Z,102989.94
2022-08-09T08:36:29.090Z,102996.91
2022-08-09T08:38:58.052Z,102987.56
2022-08-09T08:41:42.015Z,102990.94
2022-08-09T08:44:15.600Z,102988.91
2022-08-09T08:47:02.598Z,102980.56
2022-08-09T08:49:47.005Z,102985.53
2022-08-09T08:55:08.070Z,102988.97
2022-08-09T08:57:37.469Z,102981.66
2022-08-09T09:00:16.864Z,102979.78
2022-08-09T09:02:53.701Z,102976.28
2022-08-09T09:05:54.281Z,102978.09
2022-08-09T09:08:31.146Z,102980.84
2022-08-09T09:11:04.254Z,102985.44
2022-08-09T09:13:55.531Z,102982.50
2022-08-09T09:16:30.721Z,102976.38
2022-08-09T09:19:37.297Z,102974.69
2022-08-09T09:22:11.598Z,102987.19
2022-08-09T09:24:43.321Z,102984.06
2022-08-09T09:28:04.331Z,102985.56
2022-08-09T09:30:28.825Z,102976.47
2022-08-09T09:33:15.625Z,102978.47
2022-08-09T09:36:02.549Z,102979.84
2022-08-09T09:38:43.806Z,102976.38
2022-08-09T09:41:13.502Z,102978.81
2022-08-09T09:44:11.040Z,102984.50
2022-08-09T09:46:51.724Z,102980.31
2022-08-09T09:49:32.289Z,102984.97
2022-08-09T09:52:16.513Z,102982.13
2022-08-09T09:55:16.209Z,102984.69
2022-08-09T09:58:03.254Z,102989.56
2022-08-09T10:00:33.619Z,102990.34
2022-08-09T10:03:11.449Z,102988.66
2022-08-09T10:06:03.262Z,102988.84
2022-08-09T10:08:42.446Z,102993.56
2022-08-09T10:12:00.614Z,102987.28
2022-08-09T10:14:30.989Z,102986.00
2022-08-09T10:17:24.352Z,102974.34
2022-08-09T10:19:59.882Z,102973.63
2022-08-09T10:22:34.322Z,102965.59
2022-08-09T10:25:11.903Z,102959.34
2022-08-09T10:27:56.060Z,102969.66
2022-08-09T10:33:29.731Z,102948.69
2022-08-09T10:36:09.708Z,102950.44
2022-08-09T10:38:56.568Z,102939.63
2022-08-09T10:41:27.958Z,102943.06
2022-08-09T10:44:00.044Z,102940.44
2022-08-09T10:48:12.042Z,102935.31
2022-08-09T10:50:14.819Z,102944.00
2022-08-09T10:53:10.605Z,102943.06
2022-08-09T10:55:57.812Z,102946.59
2022-08-09T10:58:37.453Z,102952.75
2022-08-09T11:03:05.682Z,102950.59
2022-08-09T11:04:31.541Z,102956.63
2022-08-09T11:07:57.587Z,102955.38
2022-08-09T11:11:08.544Z,102946.16
2022-08-09T11:13:50.995Z,102951.91
2022-08-09T11:16:38.483Z,102955.47
2022-08-09T11:19:10.675Z,102943.81
2022-08-09T11:22:05.285Z,102951.72
2022-08-09T11:25:09.161Z,102949.03
2022-08-09T11:28:02.508Z,102941.66
2022-08-09T11:30:37.789Z,102952.31
2022-08-09T11:33:13.065Z,102936.78
2022-08-09T11:35:49.104Z,102938.13
2022-08-09T11:38:22.060Z,102940.47
2022-08-09T11:40:52.784Z,102928.34
2022-08-09T11:43:43.891Z,102932.19
2022-08-09T11:46:12.432Z,102933.31
2022-08-09T11:48:52.140Z,102929.41
2022-08-09T11:52:48.660Z,102936.47
2022-08-09T11:54:28.007Z,102937.25
2022-08-09T11:57:47.898Z,102939.22
2022-08-09T12:00:30.817Z,102934.09
2022-08-09T12:03:31.840Z,102931.56
2022-08-09T12:05:51.872Z,102932.34
2022-08-09T12:08:22.396Z,102917.31
2022-08-09T12:10:53.910Z,102922.34
2022-08-09T12:14:08.218Z,102922.47
2022-08-09T12:16:37.899Z,102909.00
2022-08-09T12:19:09.321Z,102910.56
2022-08-09T12:21:48.433Z,102914.94
2022-08-09T12:24:25.025Z,102904.94
2022-08-09T12:29:15.614Z,102913.00
2022-08-09T12:30:02.045Z,102915.63
2022-08-09T12:32:48.599Z,102908.94
2022-08-09T12:35:19.120Z,102907.97
2022-08-09T12:37:52.102Z,102909.13
2022-08-09T12:40:24.442Z,102910.28
2022-08-09T12:42:53.803Z,102901.03
2022-08-09T12:45:35.077Z,102908.06
2022-08-09T12:48:11.036Z,102904.34
2022-08-09T12:50:57.426Z,102901.88
2022-08-09T12:53:35.101Z,102904.41
2022-08-09T12:56:39.352Z,102891.81
2022-08-09T12:59:10.184Z,102897.97
2022-08-09T13:01:46.824Z,102898.69
2022-08-09T13:04:21.734Z,102891.81
2022-08-09T13:07:14.025Z,102899.28
2022-08-09T13:09:52.782Z,102890.34
2022-08-09T13:12:29.272Z,102880.06
2022-08-09T13:15:07.047Z,102883.56
2022-08-09T13:17:58.878Z,102877.59
2022-08-09T13:20:37.769Z,102874.75
2022-08-09T13:24:17.014Z,102883.09
2022-08-09T13:26:38.574Z,102886.56
2022-08-09T13:29:10.383Z,102890.56
2022-08-09T13:32:17.416Z,102890.31
2022-08-09T13:34:50.700Z,102893.50
2022-08-09T13:37:51.139Z,102894.31
2022-08-09T13:41:46.297Z,102888.13
2022-08-09T13:43:03.547Z,102881.03
2022-08-09T13:46:43.749Z,102876.97
2022-08-09T13:48:21.947Z,102883.13
2022-08-09T13:50:55.451Z,102881.69
2022-08-09T13:53:41.198Z,102885.69
2022-08-09T13:56:12.451Z,102893.59
2022-08-09T13:58:40.653Z,102883.09
2022-08-09T14:01:13.463Z,102874.72
2022-08-09T14:04:05.033Z,102892.94
2022-08-09T14:06:43.644Z,102879.41
2022-08-09T14:09:16.026Z,102879.13
2022-08-09T14:11:47.064Z,102873.47
2022-08-09T14:14:25.679Z,102873.66
2022-08-09T14:16:55.654Z,102872.41
2022-08-09T14:19:24.533Z,102890.38
2022-08-09T14:21:53.974Z,102877.56
2022-08-09T14:24:32.583Z,102870.66
2022-08-09T14:27:02.422Z,102872.34
2022-08-09T14:30:35.158Z,102869.75
2022-08-09T14:32:19.873Z,102873.69
2022-08-09T14:34:57.429Z,102874.53
2022-08-09T14:37:28.419Z,102868.94
2022-08-09T14:40:12.833Z,102862.13
2022-08-09T14:42:41.507Z,102862.78
2022-08-09T14:46:55.435Z,102863.78
2022-08-09T14:48:02.361Z,102867.63
2022-08-09T14:50:34.525Z,102860.28
2022-08-09T14:53:11.033Z,102859.38
2022-08-09T14:55:42.412Z,102859.38
2022-08-09T14:58:19.115Z,102858.09
2022-08-09T15:00:47.980Z,102861.44
2022-08-09T15:03:20.555Z,102857.66
2022-08-09T15:05:52.552Z,102856.91
2022-08-09T15:08:26.518Z,102855.78
2022-08-09T15:11:05.047Z,102846.09
2022-08-09T15:13:55.809Z,102853.91
2022-08-09T15:16:24.079Z,102839.72
2022-08-09T15:18:59.798Z,102847.72
2022-08-09T15:21:55.996Z,102844.75
2022-08-09T15:24:27.108Z,102836.53
2022-08-09T15:26:57.726Z,102836.19
2022-08-09T15:30:58.380Z,102838.44
2022-08-09T15:32:28.652Z,102834.59
2022-08-09T15:35:00.879Z,102836.00
2022-08-09T15:38:10.588Z,102831.34
2022-08-09T15:40:31.994Z,102830.34
2022-08-09T15:43:04.041Z,102828.75
2022-08-09T15:45:51.417Z,102824.81
2022-08-09T15:48:29.223Z,102830.41
2022-08-09T15:50:59.391Z,102823.13
2022-08-09T15:54:05.762Z,102821.38
2022-08-09T15:56:29.382Z,102815.16
2022-08-09T15:59:01.187Z,102824.28
2022-08-09T16:01:31.409Z,102816.66
2022-08-09T16:04:03.562Z,102812.19
2022-08-09T16:06:35.435Z,102810.13
2022-08-09T16:09:06.853Z,102809.91
2022-08-09T16:11:35.316Z,102820.94
2022-08-09T16:14:07.957Z,102818.88
2022-08-09T16:16:41.900Z,102817.81
2022-08-09T16:19:16.339Z,102821.94
2022-08-09T16:21:51.929Z,102818.88
2022-08-09T16:24:33.108Z,102839.63
2022-08-09T16:27:05.254Z,102828.22
2022-08-09T16:29:37.133Z,102823.69
2022-08-09T16:32:19.218Z,102830.81
2022-08-09T16:34:58.137Z,102830.28
2022-08-09T16:37:54.060Z,102835.13
2022-08-09T16:40:20.373Z,102835.44
2022-08-09T16:42:49.250Z,102841.72
2022-08-09T16:45:20.299Z,102839.31
2022-08-09T16:48:42.405Z,102842.69
2022-08-09T16:50:59.364Z,102839.81
2022-08-09T16:53:33.816Z,102837.47
2022-08-09T16:56:09.355Z,102833.88
2022-08-09T16:58:39.700Z,102847.91
2022-08-09T17:01:12.242Z,102837.69
2022-08-09T17:03:40.474Z,102849.78
2022-08-09T17:06:29.098Z,102840.34
2022-08-09T17:09:16.265Z,102848.06
2022-08-09T17:11:48.259Z,102848.53
2022-08-09T17:14:27.448Z,102850.00
2022-08-09T17:17:01.638Z,102843.25
2022-08-09T17:20:05.090Z,102852.78
2022-08-09T17:22:23.892Z,102841.63
2022-08-09T17:25:02.561Z,102845.16
2022-08-09T17:27:32.294Z,102856.03
2022-08-09T17:30:04.880Z,102855.22
2022-08-09T17:32:38.276Z,102847.09
2022-08-09T17:35:11.242Z,102850.19
2022-08-09T17:38:02.220Z,102851.63
2022-08-09T17:40:32.126Z,102847.00
2022-08-09T17:43:10.754Z,102846.53
2022-08-09T17:46:04.115Z,102851.94
2022-08-09T17:48:38.993Z,102839.75
2022-08-09T17:51:18.658Z,102846.91
2022-08-09T17:53:55.562Z,102848.78
2022-08-09T17:56:28.762Z,102841.44
2022-08-09T17:59:00.917Z,102839.44
2022-08-09T18:01:57.749Z,102840.28
2022-08-09T18:04:22.035Z,102837.41
2022-08-09T18:06:54.940Z,102834.09
2022-08-09T18:09:41.774Z,102838.00
2022-08-09T18:12:17.410Z,102840.56
2022-08-09T18:14:54.647Z,102833.31
2022-08-09T18:18:02.124Z,102837.91
2022-08-09T18:20:55.134Z,102834.28
2022-08-09T18:23:07.702Z,102826.72
2022-08-09T18:25:57.729Z,102820.09
2022-08-09T18:30:39.812Z,102805.25
2022-08-09T18:31:24.771Z,102822.84
2022-08-09T18:34:00.358Z,102815.56
2022-08-09T18:36:32.475Z,102811.19
2022-08-09T18:39:03.445Z,102820.34
2022-08-09T18:41:38.224Z,102818.06
2022-08-09T18:44:13.020Z,102814.28
2022-08-09T18:46:51.019Z,102817.75
2022-08-09T18:49:41.422Z,102820.19
2022-08-09T18:52:14.245Z,102816.31
2022-08-09T18:54:49.761Z,102813.00
2022-08-09T18:57:38.647Z,102823.59
2022-08-09T19:00:19.115Z,102824.06
2022-08-09T19:02:48.452Z,102817.78
2022-08-09T19:05:41.329Z,102825.50
2022-08-09T19:08:14.229Z,102826.97
2022-08-09T19:10:47.906Z,102830.66
2022-08-09T19:13:19.985Z,102828.88
2022-08-09T19:15:52.040Z,102828.81
2022-08-09T19:18:33.309Z,102838.50
2022-08-09T19:21:09.818Z,102830.34
2022-08-09T19:24:37.051Z,102840.72
2022-08-09T19:26:35.162Z,102854.72
2022-08-09T19:29:15.082Z,102853.41
2022-08-09T19:31:49.436Z,102865.47
2022-08-09T19:34:24.788Z,102856.06
2022-08-09T19:36:58.469Z,102870.72
2022-08-09T19:40:03.628Z,102867.41
2022-08-09T19:42:19.803Z,102872.22
2022-08-09T19:44:55.998Z,102881.41
2022-08-09T19:47:27.062Z,102888.75
2022-08-09T19:50:07.317Z,102887.16
2022-08-09T19:52:51.751Z,102878.50
2022-08-09T19:55:30.468Z,102893.78
2022-08-09T19:58:02.347Z,102892.16
2022-08-09T20:00:32.602Z,102895.78
2022-08-09T20:04:10.522Z,102890.56
2022-08-09T20:05:50.762Z,102891.56
2022-08-09T20:08:33.358Z,102895.22
2022-08-09T20:11:05.587Z,102890.00
2022-08-09T20:13:37.198Z,102901.63
2022-08-09T20:16:36.898Z,102892.81
2022-08-09T20:19:42.598Z,102896.44
2022-08-09T20:21:57.103Z,102892.94
2022-08-09T20:24:31.893Z,102897.38
2022-08-09T20:27:05.683Z,102903.66
2022-08-09T20:29:38.607Z,102892.13
2022-08-09T20:32:30.891Z,102897.50
2022-08-09T20:34:57.266Z,102902.84
2022-08-09T20:37:37.727Z,102900.22
2022-08-09T20:40:26.887Z,102901.13
2022-08-09T20:43:11.965Z,102898.50
2022-08-09T20:46:00.704Z,102907.41
2022-08-09T20:48:37.520Z,102921.56
2022-08-09T20:51:19.348Z,102915.38
2022-08-09T20:53:48.960Z,102913.59
2022-08-09T20:56:21.797Z,102909.16
2022-08-09T20:58:58.051Z,102905.63
2022-08-09T21:01:34.444Z,102909.19
2022-08-09T21:05:57.760Z,102900.31
2022-08-09T21:07:11.273Z,102896.78
2022-08-09T21:09:56.337Z,102895.03
2022-08-09T21:12:32.251Z,102888.81
2022-08-09T21:15:23.689Z,102895.00
2022-08-09T21:18:23.642Z,102886.16
2022-08-09T21:20:55.955Z,102881.75
2022-08-09T21:23:36.067Z,102880.88
2022-08-09T21:26:15.679Z,102879.97
2022-08-09T21:28:55.700Z,102868.47
2022-08-09T21:31:48.454Z,102876.44
2022-08-09T21:34:21.019Z,102873.75
2022-08-09T21:36:57.406Z,102870.22
2022-08-09T21:39:41.514Z,102875.56
2022-08-09T21:42:10.966Z,102871.09
2022-08-09T21:44:39.701Z,102866.69
2022-08-09T21:47:18.320Z,102869.34
2022-08-09T21:49:48.046Z,102871.13
2022-08-09T21:52:20.631Z,102871.97
2022-08-09T21:54:59.613Z,102873.75
2022-08-09T21:57:39.169Z,102871.09
2022-08-09T22:00:31.940Z,102871.94
2022-08-09T22:03:06.253Z,102876.38
2022-08-09T22:05:42.329Z,102880.78
2022-08-09T22:08:14.797Z,102871.06
2022-08-09T22:11:50.402Z,102879.91
2022-08-09T22:13:37.230Z,102879.88
2022-08-09T22:16:08.347Z,102875.44
2022-08-09T22:18:53.412Z,102871.91
2022-08-09T22:21:25.110Z,102877.19
2022-08-09T22:24:17.041Z,102878.94
2022-08-09T22:26:51.238Z,102884.22
2022-08-09T22:29:24.018Z,102884.22
2022-08-09T22:31:57.986Z,102884.19
2022-08-09T22:34:28.435Z,102877.97
2022-08-09T22:36:57.263Z,102880.59
2022-08-09T22:39:56.166Z,102876.16
2022-08-09T22:42:21.928Z,102880.56
2022-08-09T22:45:02.465Z,102878.78
2022-08-09T22:48:10.966Z,102880.53
2022-08-09T22:50:31.844Z,102884.03
2022-08-09T22:53:03.983Z,102879.63
2022-08-09T22:56:05.983Z,102886.69
2022-08-09T22:58:33.078Z,102891.97
2022-08-09T23:01:03.455Z,102887.53
2022-08-09T23:04:03.782Z,102884.84
2022-08-09T23:06:29.969Z,102884.81
2022-08-09T23:09:05.771Z,102878.59
2022-08-09T23:11:34.074Z,102883.94
2022-08-09T23:14:03.403Z,102878.59
2022-08-09T23:16:32.563Z,102874.16
2022-08-09T23:19:01.116Z,102873.25
2022-08-09T23:21:34.336Z,102885.59
2022-08-09T23:24:06.039Z,102877.66
2022-08-09T23:26:35.414Z,102882.06
2022-08-09T23:29:03.597Z,102879.41
2022-08-09T23:31:31.813Z,102881.16
2022-08-09T23:34:00.125Z,102875.84
2022-08-09T23:36:29.984Z,102873.19
2022-08-09T23:38:58.167Z,102869.63
2022-08-09T23:41:28.614Z,102866.97
2022-08-09T23:43:58.394Z,102864.31
2022-08-09T23:46:26.723Z,102865.19
2022-08-09T23:48:54.857Z,102859.00
2022-08-09T23:51:23.352Z,102852.78
2022-08-09T23:54:02.774Z,102852.81
2022-08-09T23:56:52.370Z,102856.28
2022-08-09T23:59:21.312Z,102858.06
